sensor_id;sensor_type;location;lat;lon;timestamp;temperature;humidity
69715;HTU21D;56981;53.532;49.398;2023-04-24T00:00:59;10.98;52.51
69715;HTU21D;56981;53.532;49.398;2023-04-24T00:03:27;10.95;52.13
69715;HTU21D;56981;53.532;49.398;2023-04-24T00:05:54;10.93;52.70
69715;HTU21D;56981;53.532;49.398;2023-04-24T00:08:21;10.89;52.86
69715;HTU21D;56981;53.532;49.398;2023-04-24T00:10:48;10.85;53.14
69715;HTU21D;56981;53.532;49.398;2023-04-24T00:13:14;10.83;53.59
69715;HTU21D;56981;53.532;49.398;2023-04-24T00:15:41;10.79;52.93
69715;HTU21D;56981;53.532;49.398;2023-04-24T00:18:13;10.75;53.56
69715;HTU21D;56981;53.532;49.398;2023-04-24T00:20:39;10.72;53.52
69715;HTU21D;56981;53.532;49.398;2023-04-24T00:23:05;10.71;53.49
69715;HTU21D;56981;53.532;49.398;2023-04-24T00:25:31;10.66;53.46
69715;HTU21D;56981;53.532;49.398;2023-04-24T00:27:58;10.64;53.91
69715;HTU21D;56981;53.532;49.398;2023-04-24T00:30:24;10.62;53.97
69715;HTU21D;56981;53.532;49.398;2023-04-24T00:32:50;10.55;53.72
69715;HTU21D;56981;53.532;49.398;2023-04-24T00:35:17;10.51;54.91
69715;HTU21D;56981;53.532;49.398;2023-04-24T00:37:45;10.44;54.69
69715;HTU21D;56981;53.532;49.398;2023-04-24T00:40:12;10.40;55.70
69715;HTU21D;56981;53.532;49.398;2023-04-24T00:42:40;10.35;55.39
69715;HTU21D;56981;53.532;49.398;2023-04-24T00:45:06;10.29;55.23
69715;HTU21D;56981;53.532;49.398;2023-04-24T00:47:33;10.27;55.41
69715;HTU21D;56981;53.532;49.398;2023-04-24T00:50:04;10.22;55.95
69715;HTU21D;56981;53.532;49.398;2023-04-24T00:52:31;10.19;56.07
69715;HTU21D;56981;53.532;49.398;2023-04-24T00:54:58;10.10;56.57
69715;HTU21D;56981;53.532;49.398;2023-04-24T00:57:25;10.07;56.11
69715;HTU21D;56981;53.532;49.398;2023-04-24T00:59:52;10.00;57.00
69715;HTU21D;56981;53.532;49.398;2023-04-24T01:02:19;9.96;57.17
69715;HTU21D;56981;53.532;49.398;2023-04-24T01:04:47;9.92;56.04
69715;HTU21D;56981;53.532;49.398;2023-04-24T01:07:13;9.93;56.94
69715;HTU21D;56981;53.532;49.398;2023-04-24T01:09:40;9.92;57.24
69715;HTU21D;56981;53.532;49.398;2023-04-24T01:12:10;9.90;57.08
69715;HTU21D;56981;53.532;49.398;2023-04-24T01:14:36;9.91;57.21
69715;HTU21D;56981;53.532;49.398;2023-04-24T01:17:03;9.89;57.15
69715;HTU21D;56981;53.532;49.398;2023-04-24T01:19:29;9.91;57.46
69715;HTU21D;56981;53.532;49.398;2023-04-24T01:21:58;9.91;57.87
69715;HTU21D;56981;53.532;49.398;2023-04-24T01:24:25;9.90;57.55
69715;HTU21D;56981;53.532;49.398;2023-04-24T01:26:52;9.94;57.77
69715;HTU21D;56981;53.532;49.398;2023-04-24T01:29:18;9.92;57.61
69715;HTU21D;56981;53.532;49.398;2023-04-24T01:31:45;9.91;57.20
69715;HTU21D;56981;53.532;49.398;2023-04-24T01:34:14;9.92;56.96
69715;HTU21D;56981;53.532;49.398;2023-04-24T01:36:41;9.94;56.94
69715;HTU21D;56981;53.532;49.398;2023-04-24T01:39:08;10.07;57.34
69715;HTU21D;56981;53.532;49.398;2023-04-24T01:41:34;10.42;55.84
69715;HTU21D;56981;53.532;49.398;2023-04-24T01:44:01;10.78;55.20
69715;HTU21D;56981;53.532;49.398;2023-04-24T01:46:28;11.31;53.35
69715;HTU21D;56981;53.532;49.398;2023-04-24T01:48:54;11.93;51.96
69715;HTU21D;56981;53.532;49.398;2023-04-24T01:51:22;12.46;49.81
69715;HTU21D;56981;53.532;49.398;2023-04-24T01:53:48;13.02;48.31
69715;HTU21D;56981;53.532;49.398;2023-04-24T01:56:14;13.52;46.96
69715;HTU21D;56981;53.532;49.398;2023-04-24T01:58:41;14.00;45.49
69715;HTU21D;56981;53.532;49.398;2023-04-24T02:01:08;14.51;44.19
69715;HTU21D;56981;53.532;49.398;2023-04-24T02:03:35;15.13;43.06
69715;HTU21D;56981;53.532;49.398;2023-04-24T02:06:01;15.51;41.45
69715;HTU21D;56981;53.532;49.398;2023-04-24T02:08:27;15.88;41.09
69715;HTU21D;56981;53.532;49.398;2023-04-24T02:10:57;16.37;39.08
69715;HTU21D;56981;53.532;49.398;2023-04-24T02:13:23;16.60;38.39
69715;HTU21D;56981;53.532;49.398;2023-04-24T02:15:50;17.29;37.24
69715;HTU21D;56981;53.532;49.398;2023-04-24T02:18:16;17.84;36.13
69715;HTU21D;56981;53.532;49.398;2023-04-24T02:20:42;18.46;34.82
69715;HTU21D;56981;53.532;49.398;2023-04-24T02:23:09;18.94;33.80
69715;HTU21D;56981;53.532;49.398;2023-04-24T02:25:35;19.30;32.68
69715;HTU21D;56981;53.532;49.398;2023-04-24T02:28:01;19.66;32.07
69715;HTU21D;56981;53.532;49.398;2023-04-24T02:30:28;19.89;31.51
69715;HTU21D;56981;53.532;49.398;2023-04-24T02:32:55;20.33;31.12
69715;HTU21D;56981;53.532;49.398;2023-04-24T02:35:21;20.66;30.00
69715;HTU21D;56981;53.532;49.398;2023-04-24T02:37:48;21.16;29.04
69715;HTU21D;56981;53.532;49.398;2023-04-24T02:40:14;21.27;28.74
69715;HTU21D;56981;53.532;49.398;2023-04-24T02:42:40;21.50;28.79
69715;HTU21D;56981;53.532;49.398;2023-04-24T02:45:07;21.85;27.80
69715;HTU21D;56981;53.532;49.398;2023-04-24T02:47:33;22.23;27.38
69715;HTU21D;56981;53.532;49.398;2023-04-24T02:49:59;22.58;26.56
69715;HTU21D;56981;53.532;49.398;2023-04-24T02:52:25;22.88;26.04
69715;HTU21D;56981;53.532;49.398;2023-04-24T02:54:51;23.01;26.04
69715;HTU21D;56981;53.532;49.398;2023-04-24T02:57:19;23.39;25.30
69715;HTU21D;56981;53.532;49.398;2023-04-24T02:59:45;23.70;24.93
69715;HTU21D;56981;53.532;49.398;2023-04-24T03:02:11;23.70;24.63
69715;HTU21D;56981;53.532;49.398;2023-04-24T03:04:37;23.98;24.36
69715;HTU21D;56981;53.532;49.398;2023-04-24T03:07:08;24.17;24.40
69715;HTU21D;56981;53.532;49.398;2023-04-24T03:09:34;24.26;23.73
69715;HTU21D;56981;53.532;49.398;2023-04-24T03:12:00;24.32;23.79
69715;HTU21D;56981;53.532;49.398;2023-04-24T03:14:26;24.61;23.55
69715;HTU21D;56981;53.532;49.398;2023-04-24T03:16:52;24.70;23.37
69715;HTU21D;56981;53.532;49.398;2023-04-24T03:19:18;25.08;22.59
69715;HTU21D;56981;53.532;49.398;2023-04-24T03:21:44;25.38;22.23
69715;HTU21D;56981;53.532;49.398;2023-04-24T03:24:10;25.24;22.04
69715;HTU21D;56981;53.532;49.398;2023-04-24T03:26:36;25.73;21.43
69715;HTU21D;56981;53.532;49.398;2023-04-24T03:29:02;26.46;20.57
69715;HTU21D;56981;53.532;49.398;2023-04-24T03:31:28;26.19;20.60
69715;HTU21D;56981;53.532;49.398;2023-04-24T03:33:55;26.27;20.50
69715;HTU21D;56981;53.532;49.398;2023-04-24T03:36:21;26.17;20.82
69715;HTU21D;56981;53.532;49.398;2023-04-24T03:38:47;26.28;20.42
69715;HTU21D;56981;53.532;49.398;2023-04-24T03:41:13;26.72;19.87
69715;HTU21D;56981;53.532;49.398;2023-04-24T03:43:39;26.77;19.79
69715;HTU21D;56981;53.532;49.398;2023-04-24T03:46:06;27.24;19.27
69715;HTU21D;56981;53.532;49.398;2023-04-24T03:48:35;27.22;19.07
69715;HTU21D;56981;53.532;49.398;2023-04-24T03:51:01;27.13;19.10
69715;HTU21D;56981;53.532;49.398;2023-04-24T03:53:27;27.31;19.47
69715;HTU21D;56981;53.532;49.398;2023-04-24T03:55:54;27.59;18.79
69715;HTU21D;56981;53.532;49.398;2023-04-24T03:58:20;27.71;19.01
69715;HTU21D;56981;53.532;49.398;2023-04-24T04:00:47;27.56;18.59
69715;HTU21D;56981;53.532;49.398;2023-04-24T04:03:13;27.86;18.22
69715;HTU21D;56981;53.532;49.398;2023-04-24T04:05:40;27.95;18.28
69715;HTU21D;56981;53.532;49.398;2023-04-24T04:08:07;28.48;18.25
69715;HTU21D;56981;53.532;49.398;2023-04-24T04:10:33;28.68;17.59
69715;HTU21D;56981;53.532;49.398;2023-04-24T04:12:59;28.62;17.84
69715;HTU21D;56981;53.532;49.398;2023-04-24T04:15:26;28.55;18.30
69715;HTU21D;56981;53.532;49.398;2023-04-24T04:17:52;28.18;17.97
69715;HTU21D;56981;53.532;49.398;2023-04-24T04:20:18;28.31;18.74
69715;HTU21D;56981;53.532;49.398;2023-04-24T04:22:44;28.57;18.19
69715;HTU21D;56981;53.532;49.398;2023-04-24T04:25:11;28.47;17.86
69715;HTU21D;56981;53.532;49.398;2023-04-24T04:27:37;28.35;18.09
69715;HTU21D;56981;53.532;49.398;2023-04-24T04:30:05;28.13;18.67
69715;HTU21D;56981;53.532;49.398;2023-04-24T04:32:34;28.14;18.15
69715;HTU21D;56981;53.532;49.398;2023-04-24T04:35:01;27.97;18.51
69715;HTU21D;56981;53.532;49.398;2023-04-24T04:37:31;28.44;17.58
69715;HTU21D;56981;53.532;49.398;2023-04-24T04:39:58;28.50;17.97
69715;HTU21D;56981;53.532;49.398;2023-04-24T04:42:25;28.56;18.31
69715;HTU21D;56981;53.532;49.398;2023-04-24T04:44:52;28.37;18.40
69715;HTU21D;56981;53.532;49.398;2023-04-24T04:47:21;28.50;17.97
69715;HTU21D;56981;53.532;49.398;2023-04-24T04:49:50;28.74;17.78
69715;HTU21D;56981;53.532;49.398;2023-04-24T04:52:22;28.92;18.07
69715;HTU21D;56981;53.532;49.398;2023-04-24T04:54:50;29.08;17.62
69715;HTU21D;56981;53.532;49.398;2023-04-24T04:57:17;29.29;17.25
69715;HTU21D;56981;53.532;49.398;2023-04-24T04:59:43;29.48;16.40
69715;HTU21D;56981;53.532;49.398;2023-04-24T05:02:09;29.79;15.70
69715;HTU21D;56981;53.532;49.398;2023-04-24T05:04:39;29.83;16.38
69715;HTU21D;56981;53.532;49.398;2023-04-24T05:07:06;29.59;16.38
69715;HTU21D;56981;53.532;49.398;2023-04-24T05:09:32;30.01;15.80
69715;HTU21D;56981;53.532;49.398;2023-04-24T05:11:58;29.77;15.84
69715;HTU21D;56981;53.532;49.398;2023-04-24T05:14:24;28.70;17.34
69715;HTU21D;56981;53.532;49.398;2023-04-24T05:16:50;28.45;17.55
69715;HTU21D;56981;53.532;49.398;2023-04-24T05:19:16;28.04;18.55
69715;HTU21D;56981;53.532;49.398;2023-04-24T05:21:42;27.98;18.89
69715;HTU21D;56981;53.532;49.398;2023-04-24T05:24:08;28.39;17.94
69715;HTU21D;56981;53.532;49.398;2023-04-24T05:26:34;28.46;17.54
69715;HTU21D;56981;53.532;49.398;2023-04-24T05:29:02;28.54;18.05
69715;HTU21D;56981;53.532;49.398;2023-04-24T05:31:28;28.63;17.83
69715;HTU21D;56981;53.532;49.398;2023-04-24T05:33:54;28.28;18.35
69715;HTU21D;56981;53.532;49.398;2023-04-24T05:36:20;28.15;18.80
69715;HTU21D;56981;53.532;49.398;2023-04-24T05:38:46;27.52;18.80
69715;HTU21D;56981;53.532;49.398;2023-04-24T05:41:12;27.45;19.04
69715;HTU21D;56981;53.532;49.398;2023-04-24T05:43:38;27.97;18.23
69715;HTU21D;56981;53.532;49.398;2023-04-24T05:46:05;28.92;17.25
69715;HTU21D;56981;53.532;49.398;2023-04-24T05:48:31;29.43;17.26
69715;HTU21D;56981;53.532;49.398;2023-04-24T05:50:57;29.39;17.22
69715;HTU21D;56981;53.532;49.398;2023-04-24T05:53:23;29.20;17.22
69715;HTU21D;56981;53.532;49.398;2023-04-24T05:55:49;29.03;16.89
69715;HTU21D;56981;53.532;49.398;2023-04-24T05:58:16;28.76;17.79
69715;HTU21D;56981;53.532;49.398;2023-04-24T06:00:42;28.90;17.53
69715;HTU21D;56981;53.532;49.398;2023-04-24T06:03:09;28.99;18.17
69715;HTU21D;56981;53.532;49.398;2023-04-24T06:05:35;28.91;17.26
69715;HTU21D;56981;53.532;49.398;2023-04-24T06:08:01;29.27;17.55
69715;HTU21D;56981;53.532;49.398;2023-04-24T06:10:27;29.32;17.70
69715;HTU21D;56981;53.532;49.398;2023-04-24T06:12:53;29.51;16.58
69715;HTU21D;56981;53.532;49.398;2023-04-24T06:15:21;28.93;17.43
69715;HTU21D;56981;53.532;49.398;2023-04-24T06:17:48;29.03;17.90
69715;HTU21D;56981;53.532;49.398;2023-04-24T06:20:14;29.32;17.62
69715;HTU21D;56981;53.532;49.398;2023-04-24T06:22:40;29.27;17.05
69715;HTU21D;56981;53.532;49.398;2023-04-24T06:25:06;29.20;17.12
69715;HTU21D;56981;53.532;49.398;2023-04-24T06:27:33;29.62;16.89
69715;HTU21D;56981;53.532;49.398;2023-04-24T06:29:59;29.58;17.01
69715;HTU21D;56981;53.532;49.398;2023-04-24T06:32:26;29.54;17.13
69715;HTU21D;56981;53.532;49.398;2023-04-24T06:34:53;29.72;16.40
69715;HTU21D;56981;53.532;49.398;2023-04-24T06:37:23;29.34;16.99
69715;HTU21D;56981;53.532;49.398;2023-04-24T06:39:49;29.57;16.67
69715;HTU21D;56981;53.532;49.398;2023-04-24T06:42:15;29.33;17.19
69715;HTU21D;56981;53.532;49.398;2023-04-24T06:44:41;29.30;17.46
69715;HTU21D;56981;53.532;49.398;2023-04-24T06:47:08;29.20;17.83
69715;HTU21D;56981;53.532;49.398;2023-04-24T06:49:35;29.35;17.06
69715;HTU21D;56981;53.532;49.398;2023-04-24T06:52:02;29.46;17.21
69715;HTU21D;56981;53.532;49.398;2023-04-24T06:54:29;29.21;17.81
69715;HTU21D;56981;53.532;49.398;2023-04-24T06:56:56;29.35;17.85
69715;HTU21D;56981;53.532;49.398;2023-04-24T06:59:24;29.22;17.35
69715;HTU21D;56981;53.532;49.398;2023-04-24T07:01:50;28.85;16.98
69715;HTU21D;56981;53.532;49.398;2023-04-24T07:04:17;28.82;16.60
69715;HTU21D;56981;53.532;49.398;2023-04-24T07:06:47;29.13;16.64
69715;HTU21D;56981;53.532;49.398;2023-04-24T07:09:15;29.22;15.33
69715;HTU21D;56981;53.532;49.398;2023-04-24T07:11:45;29.06;15.35
69715;HTU21D;56981;53.532;49.398;2023-04-24T07:14:11;28.56;16.01
69715;HTU21D;56981;53.532;49.398;2023-04-24T07:16:38;28.42;16.42
69715;HTU21D;56981;53.532;49.398;2023-04-24T07:19:04;28.25;16.26
69715;HTU21D;56981;53.532;49.398;2023-04-24T07:21:31;27.64;16.83
69715;HTU21D;56981;53.532;49.398;2023-04-24T07:23:58;27.91;17.28
69715;HTU21D;56981;53.532;49.398;2023-04-24T07:26:26;27.99;17.67
69715;HTU21D;56981;53.532;49.398;2023-04-24T07:28:52;27.42;17.43
69715;HTU21D;56981;53.532;49.398;2023-04-24T07:31:18;27.75;18.03
69715;HTU21D;56981;53.532;49.398;2023-04-24T07:33:45;27.89;16.83
69715;HTU21D;56981;53.532;49.398;2023-04-24T07:36:11;27.82;16.81
69715;HTU21D;56981;53.532;49.398;2023-04-24T07:38:47;27.83;17.11
69715;HTU21D;56981;53.532;49.398;2023-04-24T07:41:14;27.42;16.71
69715;HTU21D;56981;53.532;49.398;2023-04-24T07:43:41;27.56;16.83
69715;HTU21D;56981;53.532;49.398;2023-04-24T07:46:08;27.79;17.67
69715;HTU21D;56981;53.532;49.398;2023-04-24T07:48:35;27.76;16.77
69715;HTU21D;56981;53.532;49.398;2023-04-24T07:51:02;27.78;16.73
69715;HTU21D;56981;53.532;49.398;2023-04-24T07:53:28;27.67;17.22
69715;HTU21D;56981;53.532;49.398;2023-04-24T07:55:56;27.56;17.09
69715;HTU21D;56981;53.532;49.398;2023-04-24T07:58:25;27.46;17.12
69715;HTU21D;56981;53.532;49.398;2023-04-24T08:00:51;27.43;17.39
69715;HTU21D;56981;53.532;49.398;2023-04-24T08:03:17;27.45;16.99
69715;HTU21D;56981;53.532;49.398;2023-04-24T08:05:45;27.47;17.28
69715;HTU21D;56981;53.532;49.398;2023-04-24T08:08:12;27.50;16.32
69715;HTU21D;56981;53.532;49.398;2023-04-24T08:10:38;27.06;17.61
69715;HTU21D;56981;53.532;49.398;2023-04-24T08:13:05;27.17;16.97
69715;HTU21D;56981;53.532;49.398;2023-04-24T08:15:31;27.26;16.80
69715;HTU21D;56981;53.532;49.398;2023-04-24T08:17:57;26.37;15.18
69715;HTU21D;56981;53.532;49.398;2023-04-24T08:20:23;26.38;17.65
69715;HTU21D;56981;53.532;49.398;2023-04-24T08:22:49;26.65;16.24
69715;HTU21D;56981;53.532;49.398;2023-04-24T08:25:15;26.18;16.83
69715;HTU21D;56981;53.532;49.398;2023-04-24T08:27:43;26.62;17.57
69715;HTU21D;56981;53.532;49.398;2023-04-24T08:30:09;26.28;17.35
69715;HTU21D;56981;53.532;49.398;2023-04-24T08:32:36;26.22;17.16
69715;HTU21D;56981;53.532;49.398;2023-04-24T08:35:03;26.34;17.75
69715;HTU21D;56981;53.532;49.398;2023-04-24T08:37:29;26.18;17.05
69715;HTU21D;56981;53.532;49.398;2023-04-24T08:39:55;26.04;16.89
69715;HTU21D;56981;53.532;49.398;2023-04-24T08:42:21;26.18;17.41
69715;HTU21D;56981;53.532;49.398;2023-04-24T08:44:49;26.28;16.36
69715;HTU21D;56981;53.532;49.398;2023-04-24T08:47:16;25.92;17.04
69715;HTU21D;56981;53.532;49.398;2023-04-24T08:49:42;25.47;16.44
69715;HTU21D;56981;53.532;49.398;2023-04-24T08:52:09;25.48;17.30
69715;HTU21D;56981;53.532;49.398;2023-04-24T08:54:36;25.23;18.15
69715;HTU21D;56981;53.532;49.398;2023-04-24T08:57:03;25.19;16.30
69715;HTU21D;56981;53.532;49.398;2023-04-24T08:59:33;24.91;17.27
69715;HTU21D;56981;53.532;49.398;2023-04-24T09:02:03;24.95;17.71
69715;HTU21D;56981;53.532;49.398;2023-04-24T09:04:30;24.99;18.31
69715;HTU21D;56981;53.532;49.398;2023-04-24T09:06:57;24.25;17.85
69715;HTU21D;56981;53.532;49.398;2023-04-24T09:09:25;24.26;18.85
69715;HTU21D;56981;53.532;49.398;2023-04-24T09:11:52;24.49;18.70
69715;HTU21D;56981;53.532;49.398;2023-04-24T09:14:20;24.75;18.79
69715;HTU21D;56981;53.532;49.398;2023-04-24T09:16:49;24.71;18.93
69715;HTU21D;56981;53.532;49.398;2023-04-24T09:19:16;24.85;18.54
69715;HTU21D;56981;53.532;49.398;2023-04-24T09:21:46;24.64;18.96
69715;HTU21D;56981;53.532;49.398;2023-04-24T09:24:18;24.75;20.02
69715;HTU21D;56981;53.532;49.398;2023-04-24T09:26:46;24.53;19.73
69715;HTU21D;56981;53.532;49.398;2023-04-24T09:29:17;24.47;19.86
69715;HTU21D;56981;53.532;49.398;2023-04-24T09:31:45;24.17;20.57
69715;HTU21D;56981;53.532;49.398;2023-04-24T09:34:11;23.88;20.78
69715;HTU21D;56981;53.532;49.398;2023-04-24T09:36:39;23.99;20.79
69715;HTU21D;56981;53.532;49.398;2023-04-24T09:39:15;23.99;21.75
69715;HTU21D;56981;53.532;49.398;2023-04-24T09:41:50;23.82;21.33
69715;HTU21D;56981;53.532;49.398;2023-04-24T09:44:26;23.81;21.02
69715;HTU21D;56981;53.532;49.398;2023-04-24T09:46:58;23.65;20.75
69715;HTU21D;56981;53.532;49.398;2023-04-24T09:49:29;23.40;21.38
69715;HTU21D;56981;53.532;49.398;2023-04-24T09:52:06;23.35;21.60
69715;HTU21D;56981;53.532;49.398;2023-04-24T09:54:33;23.25;22.53
69715;HTU21D;56981;53.532;49.398;2023-04-24T09:56:59;23.44;21.48
69715;HTU21D;56981;53.532;49.398;2023-04-24T09:59:29;23.52;22.14
69715;HTU21D;56981;53.532;49.398;2023-04-24T10:01:56;23.56;21.08
69715;HTU21D;56981;53.532;49.398;2023-04-24T10:04:26;23.26;22.25
69715;HTU21D;56981;53.532;49.398;2023-04-24T10:06:55;23.23;21.70
69715;HTU21D;56981;53.532;49.398;2023-04-24T10:09:23;23.03;22.41
69715;HTU21D;56981;53.532;49.398;2023-04-24T10:11:54;22.87;21.50
69715;HTU21D;56981;53.532;49.398;2023-04-24T10:14:27;22.91;21.67
69715;HTU21D;56981;53.532;49.398;2023-04-24T10:16:55;22.87;22.34
69715;HTU21D;56981;53.532;49.398;2023-04-24T10:19:26;22.87;22.45
69715;HTU21D;56981;53.532;49.398;2023-04-24T10:21:52;22.80;22.55
69715;HTU21D;56981;53.532;49.398;2023-04-24T10:24:19;22.68;22.26
69715;HTU21D;56981;53.532;49.398;2023-04-24T10:26:48;22.76;23.07
69715;HTU21D;56981;53.532;49.398;2023-04-24T10:29:17;22.71;22.85
69715;HTU21D;56981;53.532;49.398;2023-04-24T10:31:44;22.49;23.25
69715;HTU21D;56981;53.532;49.398;2023-04-24T10:34:16;22.58;23.56
69715;HTU21D;56981;53.532;49.398;2023-04-24T10:36:50;22.66;23.24
69715;HTU21D;56981;53.532;49.398;2023-04-24T10:39:18;22.61;22.76
69715;HTU21D;56981;53.532;49.398;2023-04-24T10:41:45;22.73;22.72
69715;HTU21D;56981;53.532;49.398;2023-04-24T10:44:14;22.69;22.06
69715;HTU21D;56981;53.532;49.398;2023-04-24T10:46:45;22.36;22.84
69715;HTU21D;56981;53.532;49.398;2023-04-24T10:49:13;22.49;22.87
69715;HTU21D;56981;53.532;49.398;2023-04-24T10:54:28;22.21;23.01
69715;HTU21D;56981;53.532;49.398;2023-04-24T10:57:33;22.18;22.40
69715;HTU21D;56981;53.532;49.398;2023-04-24T11:00:16;22.25;22.75
69715;HTU21D;56981;53.532;49.398;2023-04-24T11:02:46;22.23;23.30
69715;HTU21D;56981;53.532;49.398;2023-04-24T11:05:16;22.07;22.99
69715;HTU21D;56981;53.532;49.398;2023-04-24T11:08:11;22.24;23.48
69715;HTU21D;56981;53.532;49.398;2023-04-24T11:10:44;22.35;23.87
69715;HTU21D;56981;53.532;49.398;2023-04-24T11:13:14;22.44;23.17
69715;HTU21D;56981;53.532;49.398;2023-04-24T11:15:44;22.35;23.62
69715;HTU21D;56981;53.532;49.398;2023-04-24T11:18:16;22.27;22.66
69715;HTU21D;56981;53.532;49.398;2023-04-24T11:20:44;22.24;23.13
69715;HTU21D;56981;53.532;49.398;2023-04-24T11:23:12;22.38;23.35
69715;HTU21D;56981;53.532;49.398;2023-04-24T11:25:39;22.36;22.43
69715;HTU21D;56981;53.532;49.398;2023-04-24T11:28:05;22.39;22.40
69715;HTU21D;56981;53.532;49.398;2023-04-24T11:30:32;22.21;22.88
69715;HTU21D;56981;53.532;49.398;2023-04-24T11:33:04;22.33;23.86
69715;HTU21D;56981;53.532;49.398;2023-04-24T11:35:35;22.36;23.29
69715;HTU21D;56981;53.532;49.398;2023-04-24T11:38:03;22.46;23.56
69715;HTU21D;56981;53.532;49.398;2023-04-24T11:40:31;22.40;23.11
69715;HTU21D;56981;53.532;49.398;2023-04-24T11:42:59;22.31;23.55
69715;HTU21D;56981;53.532;49.398;2023-04-24T11:45:31;22.17;23.22
69715;HTU21D;56981;53.532;49.398;2023-04-24T11:47:57;22.24;23.40
69715;HTU21D;56981;53.532;49.398;2023-04-24T11:50:26;22.31;23.74
69715;HTU21D;56981;53.532;49.398;2023-04-24T11:52:54;22.24;22.72
69715;HTU21D;56981;53.532;49.398;2023-04-24T11:57:53;22.19;22.99
69715;HTU21D;56981;53.532;49.398;2023-04-24T12:00:21;22.13;22.94
69715;HTU21D;56981;53.532;49.398;2023-04-24T12:02:48;22.06;23.66
69715;HTU21D;56981;53.532;49.398;2023-04-24T12:05:26;22.10;23.63
69715;HTU21D;56981;53.532;49.398;2023-04-24T12:07:53;22.08;23.98
69715;HTU21D;56981;53.532;49.398;2023-04-24T12:10:21;22.01;24.11
69715;HTU21D;56981;53.532;49.398;2023-04-24T12:12:48;22.05;23.87
69715;HTU21D;56981;53.532;49.398;2023-04-24T12:15:20;21.96;23.77
69715;HTU21D;56981;53.532;49.398;2023-04-24T12:17:47;22.01;23.69
69715;HTU21D;56981;53.532;49.398;2023-04-24T12:20:14;21.96;23.35
69715;HTU21D;56981;53.532;49.398;2023-04-24T12:22:51;21.90;23.67
69715;HTU21D;56981;53.532;49.398;2023-04-24T12:25:22;21.94;24.27
69715;HTU21D;56981;53.532;49.398;2023-04-24T12:30:38;22.01;23.99
69715;HTU21D;56981;53.532;49.398;2023-04-24T12:33:08;21.98;23.54
69715;HTU21D;56981;53.532;49.398;2023-04-24T12:35:34;21.93;24.14
69715;HTU21D;56981;53.532;49.398;2023-04-24T12:38:11;21.92;24.59
69715;HTU21D;56981;53.532;49.398;2023-04-24T12:40:39;21.80;24.27
69715;HTU21D;56981;53.532;49.398;2023-04-24T12:43:18;21.79;24.17
69715;HTU21D;56981;53.532;49.398;2023-04-24T12:45:48;21.75;23.79
69715;HTU21D;56981;53.532;49.398;2023-04-24T12:48:14;21.78;24.28
69715;HTU21D;56981;53.532;49.398;2023-04-24T12:50:42;21.76;24.03
69715;HTU21D;56981;53.532;49.398;2023-04-24T12:53:09;21.65;24.04
69715;HTU21D;56981;53.532;49.398;2023-04-24T12:55:36;21.62;24.23
69715;HTU21D;56981;53.532;49.398;2023-04-24T12:58:03;21.63;24.38
69715;HTU21D;56981;53.532;49.398;2023-04-24T13:00:29;21.61;24.83
69715;HTU21D;56981;53.532;49.398;2023-04-24T13:02:56;21.62;24.28
69715;HTU21D;56981;53.532;49.398;2023-04-24T13:05:22;21.65;24.76
69715;HTU21D;56981;53.532;49.398;2023-04-24T13:07:48;21.60;24.92
69715;HTU21D;56981;53.532;49.398;2023-04-24T13:10:15;21.59;24.36
69715;HTU21D;56981;53.532;49.398;2023-04-24T13:12:41;21.51;24.01
69715;HTU21D;56981;53.532;49.398;2023-04-24T13:15:11;21.48;24.60
69715;HTU21D;56981;53.532;49.398;2023-04-24T13:17:38;21.45;24.65
69715;HTU21D;56981;53.532;49.398;2023-04-24T13:20:04;21.42;24.84
69715;HTU21D;56981;53.532;49.398;2023-04-24T13:22:31;21.42;24.47
69715;HTU21D;56981;53.532;49.398;2023-04-24T13:24:57;21.36;24.68
69715;HTU21D;56981;53.532;49.398;2023-04-24T13:27:23;21.37;25.33
69715;HTU21D;56981;53.532;49.398;2023-04-24T13:29:50;21.27;25.12
69715;HTU21D;56981;53.532;49.398;2023-04-24T13:32:17;21.24;24.72
69715;HTU21D;56981;53.532;49.398;2023-04-24T13:34:45;21.16;24.17
69715;HTU21D;56981;53.532;49.398;2023-04-24T13:37:11;21.14;24.89
69715;HTU21D;56981;53.532;49.398;2023-04-24T13:39:38;21.08;25.35
69715;HTU21D;56981;53.532;49.398;2023-04-24T13:42:04;21.08;25.57
69715;HTU21D;56981;53.532;49.398;2023-04-24T13:44:31;21.06;24.40
69715;HTU21D;56981;53.532;49.398;2023-04-24T13:46:57;21.03;24.80
69715;HTU21D;56981;53.532;49.398;2023-04-24T13:49:24;21.08;24.75
69715;HTU21D;56981;53.532;49.398;2023-04-24T13:51:51;20.99;23.98
69715;HTU21D;56981;53.532;49.398;2023-04-24T13:54:18;20.98;25.40
69715;HTU21D;56981;53.532;49.398;2023-04-24T13:56:44;20.92;24.20
69715;HTU21D;56981;53.532;49.398;2023-04-24T13:59:12;20.88;24.31
69715;HTU21D;56981;53.532;49.398;2023-04-24T14:01:38;20.83;23.59
69715;HTU21D;56981;53.532;49.398;2023-04-24T14:04:05;20.79;23.85
69715;HTU21D;56981;53.532;49.398;2023-04-24T14:06:31;20.79;24.49
69715;HTU21D;56981;53.532;49.398;2023-04-24T14:08:58;20.80;24.91
69715;HTU21D;56981;53.532;49.398;2023-04-24T14:11:24;20.73;24.23
69715;HTU21D;56981;53.532;49.398;2023-04-24T14:13:54;20.74;24.85
69715;HTU21D;56981;53.532;49.398;2023-04-24T14:16:21;20.65;24.43
69715;HTU21D;56981;53.532;49.398;2023-04-24T14:18:47;20.60;24.49
69715;HTU21D;56981;53.532;49.398;2023-04-24T14:21:13;20.57;25.26
69715;HTU21D;56981;53.532;49.398;2023-04-24T14:23:40;20.57;25.20
69715;HTU21D;56981;53.532;49.398;2023-04-24T14:26:06;20.55;25.28
69715;HTU21D;56981;53.532;49.398;2023-04-24T14:28:32;20.51;26.19
69715;HTU21D;56981;53.532;49.398;2023-04-24T14:30:58;20.46;25.88
69715;HTU21D;56981;53.532;49.398;2023-04-24T14:33:25;20.41;25.88
69715;HTU21D;56981;53.532;49.398;2023-04-24T14:35:51;20.37;26.16
69715;HTU21D;56981;53.532;49.398;2023-04-24T14:38:18;20.36;26.93
69715;HTU21D;56981;53.532;49.398;2023-04-24T14:40:44;20.28;26.39
69715;HTU21D;56981;53.532;49.398;2023-04-24T14:43:10;20.28;27.00
69715;HTU21D;56981;53.532;49.398;2023-04-24T14:45:37;20.24;27.42
69715;HTU21D;56981;53.532;49.398;2023-04-24T14:48:04;20.18;27.20
69715;HTU21D;56981;53.532;49.398;2023-04-24T14:50:30;20.14;28.02
69715;HTU21D;56981;53.532;49.398;2023-04-24T14:52:56;20.05;27.71
69715;HTU21D;56981;53.532;49.398;2023-04-24T14:55:24;19.95;27.93
69715;HTU21D;56981;53.532;49.398;2023-04-24T14:57:50;19.88;28.92
69715;HTU21D;56981;53.532;49.398;2023-04-24T15:00:17;19.81;28.99
69715;HTU21D;56981;53.532;49.398;2023-04-24T15:02:44;19.77;29.17
69715;HTU21D;56981;53.532;49.398;2023-04-24T15:05:10;19.67;29.27
69715;HTU21D;56981;53.532;49.398;2023-04-24T15:07:37;19.65;29.21
69715;HTU21D;56981;53.532;49.398;2023-04-24T15:10:04;19.59;29.74
69715;HTU21D;56981;53.532;49.398;2023-04-24T15:12:31;19.51;29.80